createdAt,value
2022-08-02T00:02:21.609Z,1.08
2022-08-02T00:06:25.283Z,1.45
2022-08-02T00:10:28.549Z,1.15
2022-08-02T00:14:34.135Z,1.20
2022-08-02T00:18:39.147Z,1.13
2022-08-02T00:22:44.356Z,1.33
2022-08-02T00:26:47.541Z,1.30
2022-08-02T00:30:50.963Z,1.40
2022-08-02T00:34:55.794Z,1.40
2022-08-02T00:38:59.004Z,1.20
2022-08-02T00:43:04.330Z,1.33
2022-08-02T00:47:07.678Z,1.30
2022-08-02T00:51:13.121Z,1.13
2022-08-02T00:55:17.484Z,1.55
2022-08-02T00:59:26.731Z,1.55
2022-08-02T01:03:29.856Z,1.55
2022-08-02T01:07:34.414Z,1.30
2022-08-02T01:11:37.998Z,1.40
2022-08-02T01:15:47.376Z,1.25
2022-08-02T01:19:56.317Z,1.40
2022-08-02T01:24:14.219Z,1.45
2022-08-02T01:28:31.528Z,1.30
2022-08-02T01:32:40.395Z,1.08
2022-08-02T01:36:47.111Z,1.10
2022-08-02T01:40:52.728Z,1.05
2022-08-02T01:45:00.154Z,1.10
2022-08-02T01:49:09.523Z,0.82
2022-08-02T01:53:15.431Z,1.00
2022-08-02T01:57:21.245Z,1.00
2022-08-02T02:01:26.084Z,0.90
2022-08-02T02:05:32.260Z,1.10
2022-08-02T02:09:49.163Z,1.00
2022-08-02T02:13:54.284Z,1.08
2022-08-02T02:18:13.172Z,1.10
2022-08-02T02:22:16.967Z,0.93
2022-08-02T02:26:31.080Z,0.90
2022-08-02T02:30:38.664Z,0.90
2022-08-02T02:34:45.588Z,0.90
2022-08-02T02:38:50.873Z,0.93
2022-08-02T02:42:54.449Z,0.70
2022-08-02T02:46:59.414Z,0.90
2022-08-02T02:51:06.323Z,0.98
2022-08-02T02:55:12.940Z,1.00
2022-08-02T02:59:19.323Z,0.90
2022-08-02T03:03:23.428Z,0.90
2022-08-02T03:07:30.144Z,0.95
2022-08-02T03:11:33.796Z,0.90
2022-08-02T03:15:38.692Z,0.90
2022-08-02T03:19:41.793Z,1.08
2022-08-02T03:23:46.443Z,1.08
2022-08-02T03:27:49.662Z,0.98
2022-08-02T03:31:53.480Z,0.90
2022-08-02T03:35:59.723Z,1.10
2022-08-02T03:40:08.890Z,1.20
2022-08-02T03:44:13.731Z,1.05
2022-08-02T03:48:34.587Z,1.10
2022-08-02T03:52:38.710Z,1.10
2022-08-02T03:56:43.347Z,1.20
2022-08-02T04:00:46.798Z,1.20
2022-08-02T04:04:50.093Z,1.30
2022-08-02T04:08:53.366Z,1.25
2022-08-02T04:12:59.164Z,1.10
2022-08-02T04:17:05.822Z,1.20
2022-08-02T04:21:14.901Z,1.10
2022-08-02T04:25:21.347Z,1.17
2022-08-02T04:29:43.890Z,1.23
2022-08-02T04:33:50.476Z,0.93
2022-08-02T04:38:08.195Z,1.30
2022-08-02T04:42:22.129Z,1.20
2022-08-02T04:46:27.673Z,1.35
2022-08-02T04:50:30.860Z,1.27
2022-08-02T04:54:34.115Z,1.38
2022-08-02T04:58:40.373Z,1.33
2022-08-02T05:02:45.556Z,1.20
2022-08-02T05:06:48.679Z,1.40
2022-08-02T05:10:51.825Z,1.40
2022-08-02T05:14:55.203Z,1.50
2022-08-02T05:19:00.077Z,1.50
2022-08-02T05:23:04.019Z,1.27
2022-08-02T05:27:17.222Z,1.30
2022-08-02T05:31:25.125Z,1.50
2022-08-02T05:35:29.999Z,1.30
2022-08-02T05:39:33.155Z,1.40
2022-08-02T05:43:36.249Z,1.50
2022-08-02T05:47:40.623Z,1.33
2022-08-02T05:51:56.432Z,1.35
2022-08-02T05:56:10.155Z,1.30
2022-08-02T06:00:15.232Z,1.30
2022-08-02T06:04:25.915Z,1.48
2022-08-02T06:08:47.553Z,1.60
2022-08-02T06:12:52.972Z,1.60
2022-08-02T06:16:57.815Z,1.80
2022-08-02T06:22:32.651Z,1.40
2022-08-02T06:25:49.862Z,1.65
2022-08-02T06:29:55.053Z,1.95
2022-08-02T06:33:58.777Z,1.50
2022-08-02T06:38:03.236Z,2.38
2022-08-02T06:42:13.911Z,1.58
2022-08-02T06:46:37.680Z,1.77
2022-08-02T06:50:45.343Z,1.63
2022-08-02T06:54:48.462Z,1.80
2022-08-02T06:58:53.098Z,1.60
2022-08-02T07:02:56.291Z,1.70
2022-08-02T07:06:59.567Z,1.85
2022-08-02T07:11:03.039Z,1.83
2022-08-02T07:15:10.160Z,1.60
2022-08-02T07:19:13.650Z,1.73
2022-08-02T07:23:16.986Z,1.67
2022-08-02T07:27:20.120Z,1.60
2022-08-02T07:31:24.769Z,1.80
2022-08-02T07:35:28.787Z,1.70
2022-08-02T07:39:34.877Z,1.90
2022-08-02T07:43:38.897Z,2.17
2022-08-02T07:47:44.526Z,1.70
2022-08-02T07:51:48.164Z,2.08
2022-08-02T07:55:51.312Z,1.70
2022-08-02T07:59:54.484Z,1.85
2022-08-02T08:03:58.981Z,2.00
2022-08-02T08:08:02.202Z,1.90
2022-08-02T08:12:06.282Z,1.90
2022-08-02T08:16:09.697Z,2.10
2022-08-02T08:20:15.985Z,2.00
2022-08-02T08:24:19.470Z,2.00
2022-08-02T08:28:22.951Z,1.95
2022-08-02T08:32:27.129Z,2.03
2022-08-02T08:36:31.992Z,2.10
2022-08-02T08:40:36.662Z,1.80
2022-08-02T08:44:39.939Z,1.80
2022-08-02T08:48:47.672Z,2.00
2022-08-02T08:52:58.655Z,2.00
2022-08-02T08:57:05.563Z,1.60
2022-08-02T09:01:09.275Z,1.70
2022-08-02T09:05:14.249Z,1.77
2022-08-02T09:09:18.811Z,1.60
2022-08-02T09:13:38.109Z,1.75
2022-08-02T09:17:51.971Z,1.75
2022-08-02T09:22:03.818Z,1.58
2022-08-02T09:26:10.464Z,1.75
2022-08-02T09:30:16.834Z,1.90
2022-08-02T09:34:20.433Z,1.70
2022-08-02T09:38:25.837Z,1.58
2022-08-02T09:42:31.402Z,1.60
2022-08-02T09:46:38.048Z,1.73
2022-08-02T09:50:42.883Z,1.40
2022-08-02T09:54:46.381Z,1.70
2022-08-02T09:58:54.996Z,1.70
2022-08-02T10:03:08.939Z,1.73
2022-08-02T10:07:14.664Z,1.60
2022-08-02T10:11:18.630Z,1.60
2022-08-02T10:15:27.267Z,1.60
2022-08-02T10:20:00.095Z,1.80
2022-08-02T10:23:56.053Z,1.40
2022-08-02T10:28:06.488Z,1.38
2022-08-02T10:32:15.445Z,1.55
2022-08-02T10:36:20.341Z,1.38
2022-08-02T10:40:27.391Z,1.30
2022-08-02T10:44:32.589Z,1.48
2022-08-02T10:53:36.966Z,1.42
2022-08-02T10:57:40.021Z,1.20
2022-08-02T11:01:45.297Z,1.48
2022-08-02T11:06:02.877Z,1.33
2022-08-02T11:10:32.335Z,1.27
2022-08-02T11:14:37.503Z,1.50
2022-08-02T11:19:03.195Z,1.60
2022-08-02T11:23:44.130Z,1.42
2022-08-02T11:27:49.560Z,1.30
2022-08-02T11:31:52.653Z,1.50
2022-08-02T11:36:02.783Z,1.15
2022-08-02T11:40:19.695Z,1.42
2022-08-02T11:44:24.040Z,1.48
2022-08-02T11:48:35.010Z,1.40
2022-08-02T11:52:39.927Z,1.40
2022-08-02T11:56:44.415Z,1.25
2022-08-02T12:00:48.088Z,1.40
2022-08-02T12:04:58.137Z,1.25
2022-08-02T12:09:05.907Z,1.20
2022-08-02T12:13:22.723Z,1.42
2022-08-02T12:17:47.653Z,1.15
2022-08-02T12:22:07.249Z,1.30
2022-08-02T12:26:16.117Z,1.30
2022-08-02T12:30:27.790Z,1.35
2022-08-02T12:34:32.586Z,1.20
2022-08-02T12:38:35.778Z,1.30
2022-08-02T12:42:48.215Z,1.30
2022-08-02T12:47:02.158Z,1.40
2022-08-02T12:51:24.178Z,1.20
2022-08-02T12:56:02.482Z,1.40
2022-08-02T12:59:53.371Z,1.42
2022-08-02T13:04:10.815Z,1.38
2022-08-02T13:08:16.645Z,1.20
2022-08-02T13:12:19.721Z,1.20
2022-08-02T13:16:30.590Z,1.10
2022-08-02T13:20:38.174Z,1.25
2022-08-02T13:24:56.221Z,1.30
2022-08-02T13:29:00.312Z,1.00
2022-08-02T13:33:03.542Z,1.08
2022-08-02T13:37:08.090Z,1.13
2022-08-02T13:41:11.592Z,1.30
2022-08-02T13:45:14.854Z,1.30
2022-08-02T13:49:19.777Z,1.08
2022-08-02T13:53:25.303Z,1.15
2022-08-02T13:57:28.282Z,1.10
2022-08-02T14:01:33.076Z,1.08
2022-08-02T14:05:47.452Z,1.20
2022-08-02T14:09:53.374Z,1.10
2022-08-02T14:13:56.355Z,1.17
2022-08-02T14:17:59.393Z,1.10
2022-08-02T14:22:11.039Z,1.05
2022-08-02T14:26:26.775Z,1.20
2022-08-02T14:30:30.439Z,0.80
2022-08-02T14:34:33.517Z,1.00
2022-08-02T14:38:37.814Z,1.30
2022-08-02T14:42:42.260Z,1.00
2022-08-02T14:46:45.509Z,1.10
2022-08-02T14:50:48.732Z,1.17
2022-08-02T14:54:51.965Z,1.08
2022-08-02T14:58:56.380Z,1.00
2022-08-02T15:02:59.831Z,1.00
2022-08-02T15:07:02.997Z,0.90
2022-08-02T15:11:07.285Z,1.00
2022-08-02T15:15:12.040Z,1.08
2022-08-02T15:19:15.384Z,0.98
2022-08-02T15:23:19.544Z,1.00
2022-08-02T15:27:23.233Z,1.20
2022-08-02T15:31:33.245Z,1.00
2022-08-02T15:35:36.846Z,1.10
2022-08-02T15:39:40.211Z,1.10
2022-08-02T15:44:00.693Z,1.05
2022-08-02T15:48:07.403Z,1.05
2022-08-02T15:52:11.380Z,1.00
2022-08-02T15:56:14.578Z,1.25
2022-08-02T16:00:19.220Z,1.00
2022-08-02T16:04:23.902Z,1.10
2022-08-02T16:08:26.905Z,1.10
2022-08-02T16:12:32.318Z,1.10
2022-08-02T16:16:37.409Z,1.20
2022-08-02T16:20:42.073Z,1.20
2022-08-02T16:24:45.099Z,1.10
2022-08-02T16:28:48.269Z,1.00
2022-08-02T16:32:51.307Z,1.20
2022-08-02T16:36:55.770Z,1.08
2022-08-02T16:41:01.508Z,1.00
2022-08-02T16:45:05.268Z,1.13
2022-08-02T16:50:03.830Z,1.05
2022-08-02T16:53:37.208Z,1.00
2022-08-02T16:57:56.727Z,1.05
2022-08-02T17:02:11.141Z,1.00
2022-08-02T17:06:16.076Z,1.20
2022-08-02T17:10:20.696Z,1.10
2022-08-02T17:14:23.685Z,1.00
2022-08-02T17:18:30.245Z,1.20
2022-08-02T17:22:36.903Z,1.17
2022-08-02T17:26:41.664Z,0.90
2022-08-02T17:30:45.266Z,1.40
2022-08-02T17:34:56.616Z,1.05
2022-08-02T17:39:04.757Z,1.13
2022-08-02T17:43:14.771Z,1.10
2022-08-02T17:47:19.896Z,1.00
2022-08-02T17:52:15.418Z,1.10
2022-08-02T17:55:51.141Z,0.90
2022-08-02T18:00:04.158Z,1.00
2022-08-02T18:04:07.898Z,1.15
2022-08-02T18:08:10.900Z,1.20
2022-08-02T18:12:18.368Z,1.00
2022-08-02T18:16:23.609Z,1.10
2022-08-02T18:20:27.195Z,1.10
2022-08-02T18:24:30.414Z,1.42
2022-08-02T18:28:34.696Z,1.02
2022-08-02T18:33:55.813Z,1.02
2022-08-02T18:37:03.805Z,1.67
2022-08-02T18:41:12.654Z,1.17
2022-08-02T18:45:19.816Z,1.20
2022-08-02T18:49:25.515Z,1.13
2022-08-02T18:53:41.725Z,1.20
2022-08-02T18:58:01.965Z,1.00
2022-08-02T19:02:09.433Z,1.30
2022-08-02T19:06:13.946Z,1.33
2022-08-02T19:10:22.956Z,1.20
2022-08-02T19:14:27.741Z,1.30
2022-08-02T19:18:31.507Z,2.03
2022-08-02T19:22:37.148Z,1.80
2022-08-02T19:26:40.889Z,1.40
2022-08-02T19:30:44.350Z,1.30
2022-08-02T19:34:47.285Z,1.20
2022-08-02T19:38:52.332Z,1.17
2022-08-02T19:44:26.938Z,1.27
2022-08-02T19:47:20.413Z,1.13
2022-08-02T19:51:54.683Z,1.20
2022-08-02T19:56:06.603Z,1.30
2022-08-02T20:00:21.415Z,1.02
2022-08-02T20:05:08.130Z,1.30
2022-08-02T20:14:40.966Z,1.40
2022-08-02T20:19:23.800Z,1.50
2022-08-02T20:23:49.215Z,1.50
2022-08-02T21:08:13.885Z,1.20
2022-08-02T21:12:18.898Z,1.60
2022-08-02T21:16:32.615Z,1.48
2022-08-02T21:20:36.961Z,1.75
2022-08-02T21:24:40.337Z,1.60
2022-08-02T21:28:45.661Z,1.50
2022-08-02T21:32:54.573Z,1.80
2022-08-02T21:36:57.763Z,1.63
2022-08-02T21:41:00.960Z,1.50
2022-08-02T21:45:17.449Z,1.60
2022-08-02T21:49:40.582Z,1.65
2022-08-02T21:54:18.574Z,1.45
2022-08-02T21:58:10.921Z,1.67
2022-08-02T22:02:18.273Z,1.60
2022-08-02T22:06:21.692Z,1.95
2022-08-02T22:10:27.169Z,1.60
2022-08-02T22:14:30.341Z,1.58
2022-08-02T22:18:35.015Z,1.70
2022-08-02T22:22:38.345Z,1.90
2022-08-02T22:26:41.329Z,1.90
2022-08-02T22:30:45.424Z,1.70
2022-08-02T22:34:57.253Z,1.75
2022-08-02T22:39:00.978Z,1.75
2022-08-02T22:43:03.924Z,1.60
2022-08-02T22:47:14.850Z,1.80
2022-08-02T22:51:19.895Z,1.63
2022-08-02T22:55:23.411Z,1.55
2022-08-02T22:59:36.533Z,1.88
2022-08-02T23:03:44.178Z,1.88
2022-08-02T23:07:48.665Z,2.00
2022-08-02T23:11:51.867Z,1.70
2022-08-02T23:16:13.080Z,1.90
2022-08-02T23:20:16.299Z,1.80
2022-08-02T23:24:22.581Z,1.73
2022-08-02T23:28:25.606Z,1.90
2022-08-02T23:32:28.980Z,1.70
2022-08-02T23:36:32.834Z,1.50
2022-08-02T23:40:40.518Z,1.70
2022-08-02T23:44:44.199Z,1.90
2022-08-02T23:48:47.375Z,1.80
2022-08-02T23:52:51.012Z,1.70
2022-08-02T23:56:55.762Z,1.67
